Time;durP1;ratioP1;P1;durP2;ratioP2;P2;SDS_P1;SDS_P2;PMS_P1;PMS_P2;Temp;Humidity;BMP_temperature;BMP_pressure;BME280_temperature;BME280_humidity;BME280_pressure;Samples;Min_cycle;Max_cycle;Signal;HPM_P1;HPM_P2
2024/01/09 00:00:50;;;;;;;11.48;5.68;;;-2.30;99.90;;;-2.21;51.51;102212.06;4995717;28;20042;-86
2024/01/09 00:03:17;;;;;;;11.35;5.88;;;-2.40;99.90;;;-2.21;51.80;102213.84;5013411;28;20046;-86
2024/01/09 00:05:45;;;;;;;12.20;5.43;;;-2.40;99.90;;;-2.29;52.09;102222.13;5012608;28;20046;-86
2024/01/09 00:08:13;;;;;;;10.45;5.25;;;-2.50;99.90;;;-2.28;51.39;102230.78;5014497;28;20046;-86
2024/01/09 00:10:42;;;;;;;12.30;5.70;;;-2.40;99.90;;;-2.33;51.62;102215.38;5013436;28;20050;-86
2024/01/09 00:13:09;;;;;;;12.75;5.30;;;-2.50;99.90;;;-2.28;51.66;102226.41;4982750;28;20042;-86
2024/01/09 00:15:36;;;;;;;11.13;5.53;;;-2.50;99.90;;;-2.27;51.59;102225.47;4999568;28;20050;-86
2024/01/09 00:18:04;;;;;;;13.82;5.47;;;-2.40;99.90;;;-2.15;52.04;102222.19;5016824;28;20038;-86
2024/01/09 00:20:32;;;;;;;10.93;5.20;;;-2.30;99.90;;;-2.11;51.65;102222.84;4997140;28;20072;-86
2024/01/09 00:23:03;;;;;;;11.23;5.45;;;-2.30;99.90;;;-2.18;51.14;102208.44;5002455;28;20099;-86
2024/01/09 00:25:33;;;;;;;13.10;5.43;;;-2.40;99.90;;;-2.18;51.17;102211.06;5002271;28;20076;-86
2024/01/09 00:28:07;;;;;;;10.32;5.07;;;-2.30;99.90;;;-2.11;51.38;102209.78;5036712;28;20049;-86
2024/01/09 00:30:34;;;;;;;10.40;5.25;;;-2.30;99.90;;;-2.23;50.86;102208.69;4986978;28;20137;-86
2024/01/09 00:33:02;;;;;;;11.27;5.45;;;-2.30;99.90;;;-2.17;51.27;102210.13;4999571;28;20107;-86
2024/01/09 00:35:30;;;;;;;10.13;5.18;;;-2.30;99.90;;;-2.33;51.28;102208.38;4999223;28;20054;-86
2024/01/09 00:37:57;;;;;;;12.70;6.05;;;-2.40;99.90;;;-2.35;50.88;102211.97;5015609;28;20053;-86
2024/01/09 00:40:26;;;;;;;11.93;4.80;;;-2.50;99.90;;;-2.29;51.44;102208.19;4983217;28;20057;-86
2024/01/09 00:42:53;;;;;;;11.75;5.03;;;-2.50;99.90;;;-2.19;50.95;102209.38;4999616;28;20112;-87
2024/01/09 00:45:22;;;;;;;10.43;4.97;;;-2.40;99.90;;;-2.19;51.54;102220.69;5015506;28;20502;-86
2024/01/09 00:47:50;;;;;;;12.65;4.80;;;-2.40;99.90;;;-2.11;51.33;102200.16;4983104;28;20054;-86
2024/01/09 00:50:17;;;;;;;9.10;4.80;;;-2.30;99.90;;;-2.15;50.73;102208.25;4982558;28;20050;-86
2024/01/09 00:52:46;;;;;;;9.10;5.07;;;-2.40;99.90;;;-2.27;50.78;102201.97;5014189;28;20054;-86
2024/01/09 00:55:16;;;;;;;9.43;4.90;;;-2.40;99.90;;;-2.33;50.55;102203.16;4969725;28;20482;-86
2024/01/09 00:57:44;;;;;;;11.57;5.25;;;-2.50;99.90;;;-2.35;50.71;102210.22;5034910;28;20049;-86
2024/01/09 01:00:13;;;;;;;10.20;4.93;;;-2.50;99.90;;;-2.31;50.89;102199.59;5018342;28;20041;-86
2024/01/09 01:02:42;;;;;;;10.35;5.43;;;-2.50;99.90;;;-2.32;50.17;102198.75;5035940;28;20519;-86
2024/01/09 01:05:11;;;;;;;9.85;4.93;;;-2.50;99.90;;;-2.47;50.06;102199.59;5002953;28;20050;-86
2024/01/09 01:07:38;;;;;;;11.90;5.47;;;-2.60;99.90;;;-2.50;50.78;102199.75;5028191;28;20044;-86
2024/01/09 01:10:11;;;;;;;10.63;5.00;;;-2.70;99.90;;;-2.47;50.29;102205.66;4966222;28;20100;-86
2024/01/09 01:12:39;;;;;;;9.52;4.82;;;-2.70;99.90;;;-2.47;50.53;102207.44;4982822;28;20062;-86
2024/01/09 01:15:09;;;;;;;9.25;4.80;;;-2.60;99.90;;;-2.41;50.73;102209.72;5015087;28;20456;-86
2024/01/09 01:17:37;;;;;;;10.25;5.07;;;-2.60;99.90;;;-2.38;50.63;102205.16;4999312;28;20053;-86
2024/01/09 01:20:08;;;;;;;10.38;4.85;;;-2.60;99.90;;;-2.25;51.50;102207.09;5000541;28;20046;-86
2024/01/09 01:22:36;;;;;;;11.38;5.05;;;-2.50;99.90;;;-2.28;50.05;102208.13;4982253;28;20042;-86
2024/01/09 01:25:06;;;;;;;9.73;4.95;;;-2.50;99.90;;;-2.25;50.61;102213.16;4982356;28;20509;-86
2024/01/09 01:27:35;;;;;;;10.68;4.85;;;-2.40;99.90;;;-2.34;49.78;102218.91;4984233;28;20513;-86
2024/01/09 01:30:02;;;;;;;9.68;4.80;;;-2.50;99.90;;;-2.47;49.81;102225.72;5021499;28;20046;-86
2024/01/09 01:32:30;;;;;;;9.68;5.03;;;-2.60;99.90;;;-2.48;50.69;102216.22;5034840;28;20057;-86
2024/01/09 01:34:58;;;;;;;8.25;4.25;;;-2.60;99.90;;;-2.47;50.33;102220.50;5035229;28;20072;-86
2024/01/09 01:37:27;;;;;;;9.13;4.45;;;-2.60;99.90;;;-2.57;50.47;102220.16;5017832;28;20088;-86
2024/01/09 01:39:55;;;;;;;9.80;5.28;;;-2.70;99.90;;;-2.54;50.13;102211.31;5005818;28;20042;-86
2024/01/09 01:42:23;;;;;;;9.07;4.30;;;-2.70;99.90;;;-2.55;50.67;102207.84;4997851;28;20050;-86
2024/01/09 01:44:53;;;;;;;10.68;4.70;;;-2.70;99.90;;;-2.48;50.74;102203.16;5028500;28;20107;-86
2024/01/09 01:47:24;;;;;;;9.05;4.50;;;-2.60;99.90;;;-2.43;50.24;102211.56;5035590;28;20057;-86
2024/01/09 01:49:53;;;;;;;9.13;4.65;;;-2.60;99.90;;;-2.65;50.10;102215.34;5001172;28;20053;-86
2024/01/09 01:52:23;;;;;;;9.68;4.28;;;-2.70;99.90;;;-2.67;49.90;102204.16;4969120;28;20049;-86
2024/01/09 01:54:52;;;;;;;9.77;4.65;;;-2.80;99.90;;;-2.72;50.31;102200.94;5035347;28;20049;-86
2024/01/09 01:57:20;;;;;;;9.30;4.53;;;-2.80;99.90;;;-2.63;50.35;102215.28;5019762;28;20045;-86
2024/01/09 01:59:48;;;;;;;10.02;5.03;;;-2.70;99.90;;;-2.74;50.52;102217.59;5016482;28;20054;-86
2024/01/09 02:02:15;;;;;;;8.85;4.30;;;-2.80;99.90;;;-2.63;50.83;102215.28;5034814;28;20137;-86
2024/01/09 02:04:46;;;;;;;10.13;4.13;;;-2.70;99.90;;;-2.63;50.65;102218.72;5001335;28;20049;-86
2024/01/09 02:07:13;;;;;;;10.88;4.53;;;-2.80;99.90;;;-2.61;50.72;102216.88;5018132;28;20484;-86
2024/01/09 02:09:42;;;;;;;9.38;4.60;;;-2.70;99.90;;;-2.59;50.88;102211.53;5019139;28;20050;-86
2024/01/09 02:12:11;;;;;;;10.88;4.45;;;-2.80;99.90;;;-2.49;51.20;102212.75;5014318;28;20571;-86
2024/01/09 02:14:40;;;;;;;10.95;4.55;;;-2.70;99.90;;;-2.59;50.88;102219.38;4997361;28;20490;-86
2024/01/09 02:17:07;;;;;;;9.32;4.20;;;-2.70;99.90;;;-2.58;50.34;102217.63;5014863;28;20073;-86
2024/01/09 02:19:35;;;;;;;9.38;4.40;;;-2.70;99.90;;;-2.52;50.41;102220.75;5015083;28;20038;-86
2024/01/09 02:22:03;;;;;;;9.15;4.72;;;-2.70;99.90;;;-2.68;50.76;102210.31;4996661;28;20049;-86
2024/01/09 02:24:32;;;;;;;11.30;4.20;;;-2.80;99.90;;;-2.61;50.50;102206.41;5034050;28;20045;-86
2024/01/09 02:27:12;;;;;;;9.23;4.35;;;-2.80;99.90;;;-2.66;50.43;102200.59;5016689;28;20054;-86
2024/01/09 02:29:51;;;;;;;8.45;4.57;;;-2.80;99.90;;;-2.61;50.96;102205.56;4962208;28;20078;-86
2024/01/09 02:32:19;;;;;;;10.80;4.80;;;-2.80;99.90;;;-2.57;50.61;102201.03;4987279;28;20044;-86
2024/01/09 02:34:48;;;;;;;10.90;4.85;;;-2.70;99.90;;;-2.63;50.91;102197.00;5017433;28;20417;-86
2024/01/09 02:37:16;;;;;;;8.95;4.53;;;-2.80;99.90;;;-2.68;50.73;102204.22;5001542;28;20487;-86
2024/01/09 02:39:43;;;;;;;8.55;4.60;;;-2.80;99.90;;;-2.70;50.40;102209.53;5017071;28;20053;-86
2024/01/09 02:42:14;;;;;;;10.40;5.40;;;-2.90;99.90;;;-2.78;50.98;102203.88;4998492;28;20038;-86
2024/01/09 02:44:41;;;;;;;10.43;5.20;;;-2.90;99.90;;;-2.68;50.93;102199.00;5026493;28;20115;-86
2024/01/09 02:47:10;;;;;;;11.18;4.63;;;-2.80;99.90;;;-2.64;51.09;102192.66;5018470;28;20068;-86
2024/01/09 02:49:38;;;;;;;11.27;5.07;;;-2.80;99.90;;;-2.54;51.21;102193.00;5018475;28;20055;-86
2024/01/09 02:52:06;;;;;;;9.93;4.25;;;-2.70;99.90;;;-2.48;51.18;102205.75;5036011;28;20045;-86
2024/01/09 02:54:33;;;;;;;10.77;4.97;;;-2.70;99.90;;;-2.48;50.71;102198.78;5026031;28;20053;-86
2024/01/09 02:57:01;;;;;;;10.38;4.85;;;-2.70;99.90;;;-2.43;51.10;102196.75;5018153;28;20076;-86
2024/01/09 02:59:32;;;;;;;11.38;5.60;;;-2.60;99.90;;;-2.48;51.26;102196.16;5003130;28;20497;-86
2024/01/09 03:01:59;;;;;;;9.15;4.53;;;-2.70;99.90;;;-2.47;51.01;102187.38;5020418;28;20046;-86
2024/01/09 03:04:29;;;;;;;9.77;4.72;;;-2.70;99.90;;;-2.66;50.73;102189.31;4987316;28;20045;-86
2024/01/09 03:06:56;;;;;;;10.30;4.80;;;-2.90;99.90;;;-2.72;51.51;102185.28;5004941;28;20042;-86
2024/01/09 03:09:24;;;;;;;9.05;4.72;;;-2.90;99.90;;;-2.71;51.34;102189.56;5025569;28;20054;-86
2024/01/09 03:11:53;;;;;;;11.98;4.90;;;-2.90;99.90;;;-2.79;50.89;102189.13;5014183;28;20103;-86
2024/01/09 03:14:20;;;;;;;10.18;5.13;;;-3.00;99.90;;;-2.94;51.29;102193.41;5031935;28;20052;-86
2024/01/09 03:16:48;;;;;;;10.93;4.97;;;-3.10;99.90;;;-2.86;51.42;102186.00;5033050;28;20049;-86
2024/01/09 03:19:17;;;;;;;14.32;5.25;;;-2.90;99.90;;;-2.85;51.48;102181.63;5021679;28;20068;-86
2024/01/09 03:21:56;;;;;;;11.45;5.47;;;-3.00;99.90;;;-2.80;51.69;102194.44;4999369;28;20049;-86
2024/01/09 03:24:24;;;;;;;10.30;4.63;;;-3.00;99.90;;;-2.82;51.12;102189.31;5016153;28;20521;-86
2024/01/09 03:26:52;;;;;;;9.70;4.90;;;-3.00;99.90;;;-2.81;50.99;102195.38;5015205;28;20069;-86
2024/01/09 03:29:19;;;;;;;10.60;4.65;;;-3.00;99.90;;;-2.83;51.34;102184.16;5013555;28;20055;-86
2024/01/09 03:31:47;;;;;;;10.35;4.93;;;-3.00;99.90;;;-2.81;51.61;102190.97;5033941;28;20054;-86
2024/01/09 03:34:15;;;;;;;8.93;4.28;;;-3.00;99.90;;;-2.88;51.34;102184.38;5000323;28;20041;-86
2024/01/09 03:36:46;;;;;;;18.00;5.70;;;-3.10;99.90;;;-2.90;51.84;102183.66;5033001;28;20460;-86
2024/01/09 03:39:15;;;;;;;;;;;-3.10;99.90;;;-2.82;51.82;102178.88;5034503;28;20053;-86
2024/01/09 03:41:42;;;;;;;12.85;5.03;;;-3.00;99.90;;;-2.85;52.21;102189.47;5014745;28;19921;-86
2024/01/09 03:44:12;;;;;;;10.20;5.15;;;-3.10;99.90;;;-2.76;52.36;102201.19;4980956;28;20441;-86
2024/01/09 03:46:48;;;;;;;10.50;5.20;;;-3.00;99.90;;;-2.91;51.53;102187.19;4999361;28;20045;-86
2024/01/09 03:49:15;;;;;;;11.35;5.47;;;-3.10;99.90;;;-2.98;52.30;102194.47;4984921;28;20501;-86
2024/01/09 03:51:44;;;;;;;11.57;4.88;;;-3.10;99.90;;;-3.01;51.87;102184.22;5018519;28;20068;-86
2024/01/09 03:54:12;;;;;;;10.43;4.78;;;-2.90;99.90;;;-3.04;52.27;102197.41;5037171;28;20049;-86
2024/01/09 03:56:40;;;;;;;10.32;4.70;;;-3.20;99.90;;;-3.08;52.19;102193.28;5019780;28;20148;-86
2024/01/09 03:59:08;;;;;;;12.77;5.07;;;-3.20;99.90;;;-3.13;52.36;102193.50;5018458;28;20049;-86
2024/01/09 04:01:36;;;;;;;11.93;5.20;;;-3.30;99.90;;;-3.05;52.42;102192.28;5004184;28;20038;-86
2024/01/09 04:04:04;;;;;;;10.95;5.25;;;-3.20;99.90;;;-3.01;52.62;102192.03;5020752;28;20042;-86
2024/01/09 04:06:32;;;;;;;11.27;5.55;;;-3.20;99.90;;;-3.03;52.51;102199.09;5004305;28;20049;-86
2024/01/09 04:09:02;;;;;;;9.77;5.18;;;-3.10;99.90;;;-3.12;52.28;102184.78;5016594;28;20140;-86
2024/01/09 04:11:35;;;;;;;9.40;5.03;;;-3.20;99.90;;;-3.13;52.32;102190.91;4982179;28;20050;-86
2024/01/09 04:14:02;;;;;;;12.13;5.60;;;-3.30;99.90;;;-3.11;52.83;102194.28;4982098;28;20133;-86
2024/01/09 04:16:30;;;;;;;11.23;5.45;;;-3.20;99.90;;;-2.99;52.56;102191.97;4966647;28;20069;-86
2024/01/09 04:18:57;;;;;;;12.48;4.95;;;-3.10;99.90;;;-3.05;51.84;102187.91;5017010;28;20076;-86
2024/01/09 04:21:28;;;;;;;10.93;5.65;;;-3.10;99.90;;;-3.04;52.55;102186.13;5006836;28;20054;-86
2024/01/09 04:23:58;;;;;;;9.52;5.00;;;-3.20;99.90;;;-3.03;52.38;102186.03;4999425;28;20068;-86
2024/01/09 04:26:28;;;;;;;10.43;5.15;;;-3.20;99.90;;;-2.96;53.09;102176.16;4983266;28;20125;-86
2024/01/09 04:28:56;;;;;;;10.40;5.47;;;-3.10;99.90;;;-3.00;52.58;102177.22;5000250;28;20103;-86
2024/01/09 04:31:25;;;;;;;11.15;6.00;;;-3.20;99.90;;;-2.94;52.96;102176.91;5017271;28;20056;-86
2024/01/09 04:33:55;;;;;;;12.68;5.15;;;-2.90;99.90;;;-2.97;52.36;102175.31;5000052;28;20076;-86
2024/01/09 04:36:22;;;;;;;11.57;5.65;;;-3.10;99.90;;;-2.97;52.67;102172.69;4998964;28;20129;-85
2024/01/09 04:38:50;;;;;;;11.20;5.30;;;-3.10;99.90;;;-3.08;52.73;102177.63;5036182;28;20496;-87
2024/01/09 04:41:23;;;;;;;12.32;5.55;;;-3.20;99.90;;;-3.09;52.60;102175.09;5016892;28;20064;-86
2024/01/09 04:43:52;;;;;;;13.27;5.90;;;-3.30;99.90;;;-3.03;53.28;102180.00;5020283;28;20041;-86
2024/01/09 04:46:22;;;;;;;12.80;6.00;;;-3.30;99.90;;;-3.01;52.49;102165.09;5019395;28;20120;-86
2024/01/09 04:48:55;;;;;;;16.38;5.93;;;-3.20;99.90;;;-2.95;52.86;102180.44;5002612;28;20045;-86
2024/01/09 04:51:22;;;;;;;12.02;5.13;;;-3.20;99.90;;;-2.94;52.57;102169.06;5033642;28;20050;-86
2024/01/09 04:53:51;;;;;;;11.23;5.50;;;-3.10;99.90;;;-3.03;52.83;102173.00;5017199;28;20069;-86
2024/01/09 04:56:19;;;;;;;11.07;5.57;;;-3.20;99.90;;;-3.08;52.89;102161.13;5016688;28;20050;-86
2024/01/09 04:58:46;;;;;;;14.18;5.95;;;-3.30;99.90;;;-3.05;53.16;102168.81;5014507;28;20050;-86
2024/01/09 05:01:16;;;;;;;11.88;5.38;;;-3.20;99.90;;;-3.02;52.92;102168.66;4999354;28;20050;-86
2024/01/09 05:03:47;;;;;;;11.05;5.32;;;-3.20;99.90;;;-3.07;53.20;102168.03;5016743;28;20038;-86
2024/01/09 05:06:15;;;;;;;12.57;5.68;;;-3.20;99.90;;;-2.97;53.04;102164.03;5017175;28;20042;-86
2024/01/09 05:08:51;;;;;;;11.90;6.15;;;-3.20;99.90;;;-3.02;52.45;102163.44;4966560;28;20050;-86
2024/01/09 05:11:18;;;;;;;11.35;5.45;;;-3.10;99.90;;;-3.02;53.01;102160.81;5001370;28;20100;-86
2024/01/09 05:13:48;;;;;;;13.07;6.10;;;-3.20;99.90;;;-2.98;52.31;102154.50;4999136;28;20053;-86
2024/01/09 05:16:18;;;;;;;11.90;5.93;;;-3.20;99.90;;;-3.01;53.02;102152.91;5007657;28;20497;-85
2024/01/09 05:18:48;;;;;;;13.18;6.20;;;-3.20;99.90;;;-3.01;53.22;102150.28;5036973;28;20049;-85
2024/01/09 05:21:16;;;;;;;11.20;5.80;;;-3.20;99.90;;;-2.95;52.91;102156.94;5004671;28;20087;-85
2024/01/09 05:23:45;;;;;;;11.82;5.43;;;-3.20;99.90;;;-2.92;52.72;102151.56;5019634;28;20052;-85
2024/01/09 05:26:12;;;;;;;12.55;5.95;;;-3.10;99.90;;;-3.07;52.94;102153.22;5038493;28;20400;-86
2024/01/09 05:28:40;;;;;;;13.10;6.00;;;-3.30;99.90;;;-3.04;52.80;102152.22;5005287;28;20072;-86
2024/01/09 05:31:09;;;;;;;12.50;6.07;;;-3.20;99.90;;;-3.00;53.07;102156.34;4998365;28;20417;-87
2024/01/09 05:33:39;;;;;;;11.90;5.55;;;-3.20;99.90;;;-3.00;52.56;102149.34;5015807;28;20061;-87
2024/01/09 05:36:08;;;;;;;11.32;5.68;;;-3.20;99.90;;;-2.96;52.99;102150.88;5014363;28;20144;-87
2024/01/09 05:38:36;;;;;;;15.35;5.80;;;-3.20;99.90;;;-2.95;52.91;102160.41;5015721;28;20571;-86
2024/01/09 05:41:04;;;;;;;12.30;5.57;;;-3.20;99.90;;;-3.03;52.74;102156.50;4999963;28;20099;-86
2024/01/09 05:43:34;;;;;;;11.80;5.40;;;-3.20;99.90;;;-3.02;52.79;102153.00;5032880;28;20543;-86
2024/01/09 05:46:05;;;;;;;11.02;5.47;;;-3.20;99.90;;;-3.00;52.47;102145.91;5018101;28;20069;-87
2024/01/09 05:48:32;;;;;;;;;;;-3.20;99.90;;;-3.04;52.71;102154.81;4985382;28;20128;-86
2024/01/09 05:51:05;;;;;;;12.90;6.03;;;-3.30;99.90;;;-3.08;52.94;102156.75;5016034;28;19921;-88
2024/01/09 05:53:33;;;;;;;12.95;5.85;;;-3.40;99.90;;;-3.08;52.75;102155.91;4997951;28;20048;-86
2024/01/09 05:56:03;;;;;;;12.98;5.88;;;-3.30;99.90;;;-3.24;53.00;102159.31;5014646;28;20049;-86
2024/01/09 05:58:33;;;;;;;12.85;5.68;;;-3.40;99.90;;;-3.28;53.88;102156.94;4997699;28;20057;-86
2024/01/09 06:01:01;;;;;;;12.07;5.63;;;-3.40;99.90;;;-3.20;53.77;102162.63;4998247;28;20474;-86
2024/01/09 06:03:31;;;;;;;12.80;6.35;;;-3.40;99.90;;;-3.21;53.08;102155.72;5002278;28;20046;-85
2024/01/09 06:06:02;;;;;;;12.57;6.15;;;-3.40;99.90;;;-3.28;52.76;102159.56;4997396;28;20049;-87
2024/01/09 06:08:30;;;;;;;14.20;6.90;;;-3.40;99.90;;;-3.21;53.27;102159.19;4965600;28;20081;-86
2024/01/09 06:10:58;;;;;;;14.48;6.22;;;-3.40;99.90;;;-3.35;53.23;102164.25;5014607;28;20456;-86
2024/01/09 06:13:28;;;;;;;12.50;6.15;;;-3.50;99.90;;;-3.33;53.37;102164.19;5008913;28;20037;-88
2024/01/09 06:15:56;;;;;;;12.80;5.85;;;-3.50;99.90;;;-3.34;53.45;102165.94;5017155;28;20042;-89
2024/01/09 06:18:24;;;;;;;14.07;6.45;;;-3.50;99.90;;;-3.33;53.75;102159.78;5035954;28;20050;-87
2024/01/09 06:20:53;;;;;;;13.88;6.20;;;-3.50;99.90;;;-3.27;53.46;102166.47;4999195;28;20438;-86
2024/01/09 06:23:22;;;;;;;15.52;5.95;;;-3.40;99.90;;;-3.29;53.38;102170.91;5017641;28;20068;-86
2024/01/09 06:25:49;;;;;;;13.15;6.03;;;-3.40;99.90;;;-3.29;53.29;102178.75;5003827;28;20049;-86
2024/01/09 06:28:17;;;;;;;12.15;5.75;;;-3.40;99.90;;;-3.23;52.81;102174.03;5021943;28;20049;-86
2024/01/09 06:30:48;;;;;;;15.25;6.25;;;-3.30;99.90;;;-3.18;53.37;102174.66;5017664;28;20141;-88
2024/01/09 06:33:16;;;;;;;13.10;6.10;;;-3.40;99.90;;;-3.15;53.17;102171.88;5029997;28;20128;-88
2024/01/09 06:35:44;;;;;;;12.25;5.90;;;-3.30;99.90;;;-3.10;53.86;102174.25;5034404;28;20064;-86
2024/01/09 06:38:11;;;;;;;14.80;6.10;;;-3.30;99.90;;;-3.07;52.76;102170.63;4983230;28;20052;-86
2024/01/09 06:40:43;;;;;;;9.82;5.32;;;-3.30;99.90;;;-3.08;53.10;102171.56;5036413;28;20049;-85
2024/01/09 06:43:11;;;;;;;12.65;5.85;;;-3.30;99.90;;;-3.13;52.69;102158.75;5034331;28;20041;-87
2024/01/09 06:45:39;;;;;;;14.68;6.63;;;-3.30;99.90;;;-3.21;52.98;102174.81;5003482;28;20072;-86
2024/01/09 06:48:08;;;;;;;13.48;6.18;;;-3.40;99.90;;;-3.16;53.40;102178.03;5014064;28;20072;-86
2024/01/09 06:50:36;;;;;;;15.55;6.75;;;-3.30;99.90;;;-3.09;53.44;102175.09;4984347;28;20140;-85
2024/01/09 06:53:05;;;;;;;13.05;6.28;;;-3.30;99.90;;;-3.18;53.03;102179.03;5033804;28;20055;-87
2024/01/09 06:55:33;;;;;;;11.88;6.43;;;-3.40;99.90;;;-3.20;53.00;102170.44;5016575;28;20515;-87
2024/01/09 06:58:07;;;;;;;14.45;5.90;;;-3.40;99.90;;;-3.18;53.45;102181.63;5029079;28;20053;-84
2024/01/09 07:00:36;;;;;;;12.60;5.70;;;-3.40;99.90;;;-3.29;52.48;102174.38;4992579;28;20056;-84
2024/01/09 07:03:05;;;;;;;12.32;6.13;;;-3.50;99.90;;;-3.43;53.45;102175.09;5025961;28;20105;-84
2024/01/09 07:05:40;;;;;;;13.77;5.93;;;-3.60;99.90;;;-3.39;53.83;102189.66;5040922;28;20577;-84
2024/01/09 07:08:08;;;;;;;17.05;6.80;;;-3.60;99.90;;;-3.48;53.72;102184.06;5044381;28;20186;-84
2024/01/09 07:10:47;;;;;;;13.88;6.60;;;-3.60;99.90;;;-3.38;54.00;102182.66;5026422;28;20042;-84
2024/01/09 07:13:19;;;;;;;13.48;5.95;;;-3.60;99.90;;;-3.38;53.88;102188.72;5027365;28;20053;-84
2024/01/09 07:15:49;;;;;;;14.60;6.65;;;-3.50;99.90;;;-3.29;53.77;102184.81;5024078;28;20050;-84
2024/01/09 07:18:17;;;;;;;14.03;6.67;;;-3.50;99.90;;;-3.31;53.38;102186.66;4991567;28;20052;-84
2024/01/09 07:20:50;;;;;;;13.20;6.53;;;-3.50;99.90;;;-3.29;53.31;102186.56;5007956;28;20037;-83
2024/01/09 07:23:18;;;;;;;15.23;6.03;;;-3.20;99.90;;;-3.41;53.45;102206.31;5005240;28;20045;-84
2024/01/09 07:25:46;;;;;;;15.95;6.90;;;-3.60;99.90;;;-3.39;53.52;102191.41;5007809;28;20046;-84
2024/01/09 07:28:18;;;;;;;15.20;6.88;;;-3.50;99.90;;;-3.45;53.03;102199.56;5007029;28;20113;-84
2024/01/09 07:30:47;;;;;;;12.85;6.43;;;-3.60;99.90;;;-3.51;53.47;102205.09;5007196;28;20042;-84
2024/01/09 07:33:22;;;;;;;15.00;7.18;;;-3.60;99.90;;;-3.55;53.95;102196.59;5024263;28;20038;-84
2024/01/09 07:35:53;;;;;;;13.77;6.35;;;-3.70;99.90;;;-3.46;53.61;102203.09;5007972;28;20069;-84
2024/01/09 07:38:35;;;;;;;14.73;6.68;;;-3.60;99.90;;;-3.37;53.72;102207.81;5008217;28;20110;-84
2024/01/09 07:41:11;;;;;;;16.33;6.72;;;-3.60;99.90;;;-3.47;53.43;102212.66;5025347;28;20494;-84
2024/01/09 07:43:45;;;;;;;13.88;7.00;;;-3.60;99.90;;;-3.50;52.84;102206.78;5022993;28;20064;-84
2024/01/09 07:46:23;;;;;;;13.02;6.63;;;-3.40;99.90;;;-3.54;53.29;102205.25;5025323;28;20065;-84
2024/01/09 07:48:54;;;;;;;14.85;6.85;;;-3.60;99.90;;;-3.50;53.81;102201.56;5008914;28;20077;-84
2024/01/09 07:51:27;;;;;;;15.98;6.72;;;-3.50;99.90;;;-3.40;53.15;102211.44;5025628;28;20570;-84
2024/01/09 07:54:00;;;;;;;14.63;6.57;;;-3.60;99.90;;;-3.30;53.67;102209.22;5024073;28;20069;-83
2024/01/09 07:56:32;;;;;;;14.65;6.55;;;-3.50;99.90;;;-3.20;53.73;102212.19;4986314;28;20046;-84
2024/01/09 07:59:12;;;;;;;;;;;-3.40;99.90;;;-3.21;53.67;102220.94;4987640;28;20046;-84
2024/01/09 08:01:45;;;;;;;14.27;6.88;;;-3.40;99.90;;;-3.23;53.33;102225.38;5005012;28;19922;-84
2024/01/09 08:06:52;;;;;;;14.00;6.43;;;-3.50;99.90;;;-3.43;53.75;102216.81;5042269;28;20088;-85
2024/01/09 08:09:22;;;;;;;16.10;7.18;;;-3.60;99.90;;;-3.43;53.71;102222.03;5023561;28;20512;-83
2024/01/09 08:11:49;;;;;;;15.23;7.32;;;-3.60;99.90;;;-3.50;53.48;102222.44;5011816;28;20128;-83
2024/01/09 08:14:18;;;;;;;14.27;6.70;;;-3.60;99.90;;;-3.58;53.28;102227.16;5026728;28;20505;-83
2024/01/09 08:16:46;;;;;;;13.88;6.68;;;-3.60;99.90;;;-3.45;53.99;102229.09;5024602;28;20093;-83
2024/01/09 08:19:14;;;;;;;14.48;7.38;;;-3.60;99.90;;;-3.38;53.89;102237.44;5007403;28;20042;-83
2024/01/09 08:21:42;;;;;;;15.35;7.13;;;-3.50;99.90;;;-3.43;52.88;102229.84;5007492;28;20077;-83
2024/01/09 08:24:17;;;;;;;14.98;7.18;;;-3.50;99.90;;;-3.35;53.13;102246.88;5025722;28;20062;-83
2024/01/09 08:26:48;;;;;;;17.15;7.72;;;-3.50;99.90;;;-3.43;53.30;102235.06;5008974;28;20042;-83
2024/01/09 08:29:18;;;;;;;15.95;7.32;;;-3.40;99.90;;;-3.51;53.56;102233.78;4992753;28;20421;-83
2024/01/09 08:31:50;;;;;;;15.30;7.68;;;-3.60;99.90;;;-3.53;53.54;102233.00;5007575;28;20045;-83
2024/01/09 08:34:19;;;;;;;14.35;7.05;;;-3.60;99.90;;;-3.50;53.82;102230.25;5010787;28;20069;-83
2024/01/09 08:36:48;;;;;;;16.98;7.00;;;-3.60;99.90;;;-3.46;53.54;102234.41;5010897;28;20042;-83
2024/01/09 08:39:16;;;;;;;15.65;6.32;;;-3.60;99.90;;;-3.42;53.47;102241.13;5029871;28;20046;-83
2024/01/09 08:41:45;;;;;;;15.73;7.38;;;-3.50;99.90;;;-3.35;53.40;102247.72;5029091;28;20046;-83
2024/01/09 08:44:12;;;;;;;15.32;7.50;;;-3.50;99.90;;;-3.31;53.79;102236.22;4994391;28;20121;-83
2024/01/09 08:46:42;;;;;;;16.48;8.10;;;-3.50;99.90;;;-3.33;53.34;102235.44;5010582;28;20037;-83
2024/01/09 08:49:11;;;;;;;18.63;7.07;;;-3.40;99.90;;;-3.30;52.80;102243.13;5009760;28;20050;-83
2024/01/09 08:51:38;;;;;;;15.20;6.65;;;-3.40;99.90;;;-3.34;53.06;102235.53;5027308;28;20045;-82
2024/01/09 08:54:07;;;;;;;16.13;7.13;;;-3.50;99.90;;;-3.35;53.34;102239.91;5011356;28;20046;-86
2024/01/09 08:56:34;;;;;;;17.52;7.10;;;-3.40;99.90;;;-3.44;53.17;102245.59;5026349;28;20042;-83
2024/01/09 08:59:03;;;;;;;17.30;7.18;;;-3.50;99.90;;;-3.42;53.19;102241.13;5029036;28;20069;-83
2024/01/09 09:01:35;;;;;;;17.48;7.82;;;-3.50;99.90;;;-3.45;53.09;102242.13;4978499;28;20048;-83
2024/01/09 09:04:05;;;;;;;15.60;7.63;;;-3.50;99.90;;;-3.40;53.34;102236.69;5011068;28;20049;-83
2024/01/09 09:06:34;;;;;;;18.27;7.80;;;-3.50;99.90;;;-3.27;53.82;102250.81;5026802;28;20050;-83
2024/01/09 09:09:01;;;;;;;17.77;7.15;;;-3.40;99.90;;;-3.32;52.36;102238.88;5010315;28;20049;-83
2024/01/09 09:11:29;;;;;;;12.30;6.45;;;-3.20;99.90;;;-3.38;52.49;102242.66;5010691;28;20046;-83
2024/01/09 09:13:57;;;;;;;14.35;7.30;;;-3.50;99.90;;;-3.41;52.59;102238.47;5029585;28;20061;-83
2024/01/09 09:16:28;;;;;;;14.63;7.22;;;-3.40;99.90;;;-3.36;52.38;102243.44;5027921;28;20038;-82
2024/01/09 09:18:56;;;;;;;18.58;7.80;;;-3.40;99.90;;;-3.25;52.56;102238.50;5029570;28;20125;-82
2024/01/09 09:21:25;;;;;;;13.40;7.22;;;-3.30;99.90;;;-3.32;52.96;102242.34;5009160;28;20501;-83
2024/01/09 09:23:53;;;;;;;14.43;7.15;;;-3.20;99.90;;;-3.28;52.39;102230.00;5056568;23;20535;-87
2024/01/09 09:26:21;;;;;;;13.18;6.90;;;-3.30;99.90;;;-3.30;52.51;102240.50;5056507;28;20068;-87
2024/01/09 09:28:50;;;;;;;15.73;7.10;;;-3.30;99.90;;;-3.20;51.89;102235.66;5056352;28;20412;-88
2024/01/09 09:31:41;;;;;;;17.80;7.30;;;-3.20;99.90;;;-3.16;51.79;102245.03;5055630;28;20512;-87
2024/01/09 09:34:17;;;;;;;16.85;6.65;;;-3.20;99.90;;;-3.21;51.83;102245.28;5051252;28;20103;-87
2024/01/09 09:36:48;;;;;;;14.00;6.28;;;-3.20;99.90;;;-3.17;51.67;102238.97;5019066;28;20048;-87
2024/01/09 09:39:26;;;;;;;14.90;6.72;;;-3.20;99.90;;;-3.16;52.14;102237.22;5035490;28;20543;-87
2024/01/09 09:45:12;;;;;;;16.15;6.63;;;-3.20;99.90;;;-3.04;51.23;102236.56;5013759;28;20045;-87
2024/01/09 09:47:41;;;;;;;14.93;7.07;;;-3.10;99.90;;;-3.02;51.47;102241.72;5001878;28;20053;-87
2024/01/09 09:50:11;;;;;;;15.85;6.45;;;-3.00;99.90;;;-3.01;51.45;102241.63;5018533;28;20076;-87
2024/01/09 09:53:30;;;;;;;15.50;6.85;;;-3.00;99.90;;;-3.06;50.86;102254.06;5016459;28;20095;-88
2024/01/09 09:55:59;;;;;;;14.95;7.05;;;-3.00;99.90;;;-2.99;50.81;102244.16;5030988;28;20141;-87
2024/01/09 09:58:27;;;;;;;12.88;5.90;;;-3.00;99.90;;;-2.97;50.55;102250.16;4997814;28;20547;-87
2024/01/09 10:00:59;;;;;;;14.10;7.45;;;-2.90;99.90;;;-2.92;50.80;102248.16;5015496;28;20046;-87
2024/01/09 10:03:33;;;;;;;15.20;6.80;;;-2.90;99.90;;;-2.89;50.86;102240.13;4997952;28;20046;-87
2024/01/09 10:06:05;;;;;;;14.98;6.85;;;-2.90;99.90;;;-2.87;50.84;102238.31;5015406;28;20065;-87
2024/01/09 10:08:36;;;;;;;15.43;6.82;;;-2.90;99.90;;;-2.92;50.20;102248.16;5016496;28;20042;-89
2024/01/09 10:11:07;;;;;;;15.73;6.70;;;-2.90;99.90;;;-2.82;50.47;102245.91;5034690;28;20409;-88
2024/01/09 10:13:35;;;;;;;15.45;6.85;;;-2.80;99.90;;;-2.82;50.41;102243.28;5016844;28;20063;-88
2024/01/09 10:16:03;;;;;;;15.60;7.05;;;-2.80;99.90;;;-2.83;49.64;102234.63;5000069;28;20168;-88
2024/01/09 10:18:33;;;;;;;12.82;6.03;;;-2.80;99.90;;;-2.77;50.36;102226.44;5033863;28;20045;-88
2024/01/09 10:21:01;;;;;;;14.80;6.68;;;-2.60;99.90;;;-2.74;49.94;102230.66;5020970;28;20066;-88
2024/01/09 10:23:29;;;;;;;13.60;7.18;;;-2.70;99.90;;;-2.74;50.08;102234.09;5033429;28;20136;-88